Benone, United Kingdom
Current Conditions -  °F | °C
As of 1:20 PM on Wednesday 22 Oct 2014 (Local Time) from EGAE Reporting Station
Scattered Clouds Scattered Clouds  
Wind Chill: 55°   Ceiling: Unl
Heat Index: 55°   Visibility: 6mi
Dew Point: 50°   Wind: 20mph
Humidity: 82%   Direction: 220°SW
Pressure: 30.03"   Gusts: 31mph
Location:  55.17°N, 6.88°W
Report Text: EGAE 221220Z 22017G27KT 9999 FEW016 SCT022 13/10 Q1017
Loading
Personal Weather Stations






























Interactive Weather Map
Tropical Storm Tracking
New forecast layout! Learn more

10-Day Weather Forecast

Advertisements
Track Severe Weather on mobile